Private Wetterstation Nrnberg - Katzwang
Wetterdaten: Mai 2015
Datum Temp. A. Feuchte A. Luftdruck Regen Wind Richtung Taupunkt Windchill Windben
01.05.2015 9,7 C 82 % 1005 hPa 6,7 l/m 4,4 km/h N-NO 6,8 C 8,1 C 3,7 km/h
02.05.2015 11,0 C 78 % 1009 hPa 1,0 l/m 0,0 km/h N-NO 7,2 C 11,0 C 0,0 km/h
03.05.2015 14,4 C 85 % 1006 hPa 6,7 l/m 3,8 km/h NO 11,9 C 13,5 C 3,1 km/h
04.05.2015 18,5 C 72 % 1008 hPa 1,0 l/m 3,8 km/h W-NW 13,2 C 18,5 C 3,1 km/h
05.05.2015 18,6 C 76 % 1007 hPa 4,1 l/m 0,0 km/h NO 14,2 C 18,6 C 0,0 km/h
06.05.2015 15,3 C 74 % 1013 hPa 3,1 l/m 4,4 km/h W-NW 10,6 C 14,7 C 3,7 km/h
07.05.2015 13,4 C 62 % 1017 hPa 0,0 l/m 19,2 km/h W-NW 5,8 C 11,4 C 17,0 km/h
08.05.2015 16,7 C 64 % 1012 hPa 0,0 l/m 2,5 km/h N-NO 9,5 C 16,4 C 2,1 km/h
09.05.2015 16,8 C 67 % 1017 hPa 0,0 l/m 2,2 km/h W-NW 10,4 C 16,5 C 1,8 km/h
10.05.2015 16,2 C 61 % 1024 hPa 1,0 l/m 3,5 km/h W-NW 8,3 C 15,6 C 2,9 km/h
11.05.2015 17,4 C 61 % 1021 hPa 0,0 l/m 6,0 km/h O-NO 9,4 C 17,1 C 4,9 km/h
12.05.2015 23,1 C 54 % 1015 hPa 0,0 l/m 13,2 km/h W-NW 12,8 C 21,6 C 16,7 km/h
13.05.2015 18,2 C 58 % 1013 hPa 0,0 l/m 13,9 km/h NO 9,7 C 15,5 C 11,5 km/h
14.05.2015 17,1 C 55 % 1009 hPa 0,0 l/m 4,7 km/h W-NW 7,6 C 16,3 C 3,9 km/h
15.05.2015 16,3 C 50 % 1011 hPa 0,0 l/m 6,9 km/h NO 5,6 C 14,6 C 5,7 km/h
16.05.2015 16,5 C 59 % 1020 hPa 0,0 l/m 2,5 km/h W-NW 7,8 C 16,2 C 2,1 km/h
17.05.2015 15,4 C 60 % 1020 hPa 0,0 l/m 8,8 km/h W-NW 7,4 C 13,4 C 9,9 km/h
18.05.2015 18,1 C 57 % 1007 hPa 0,0 l/m 0,6 km/h W-NW 9,0 C 18,1 C 0,5 km/h
19.05.2015 14,9 C 62 % 1008 hPa 0,0 l/m 0,0 km/h W-NW 7,5 C 14,9 C 0,0 km/h
20.05.2015 10,4 C 79 % 1013 hPa 4,7 l/m 0,0 km/h NO 6,8 C 10,4 C 0,0 km/h
21.05.2015 13,2 C 58 % 1020 hPa 0,0 l/m 10,1 km/h N-NO 4,6 C 10,9 C 8,4 km/h
22.05.2015 14,4 C 56 % 1020 hPa 0,0 l/m 3,2 km/h NO 5,3 C 13,8 C 2,6 km/h
23.05.2015 15,7 C 57 % 1015 hPa 0,0 l/m 16,4 km/h N-NO 6,9 C 12,5 C 17,5 km/h
24.05.2015 15,9 C 74 % 1015 hPa 0,0 l/m 7,6 km/h NO 11,2 C 15,0 C 6,3 km/h
25.05.2015 16,4 C 71 % 1011 hPa 1,0 l/m 2,2 km/h NO 10,6 C 16,2 C 1,8 km/h
26.05.2015 12,8 C 68 % 1016 hPa 0,5 l/m 0,6 km/h N-NO 6,9 C 12,8 C 0,5 km/h
27.05.2015 11,5 C 64 % 1020 hPa 0,0 l/m 2,8 km/h W-NW 4,8 C 10,9 C 2,3 km/h
28.05.2015 16,7 C 54 % 1013 hPa 0,0 l/m 0,0 km/h W-NW 6,7 C 16,7 C 0,0 km/h
29.05.2015 15,9 C 73 % 1009 hPa 5,2 l/m 0,6 km/h N-NO 10,9 C 15,9 C 0,5 km/h
30.05.2015 13,8 C 73 % 1013 hPa 2,1 l/m 0,0 km/h W-NW 9,1 C 13,8 C 0,0 km/h
31.05.2015 17,1 C 63 % 1013 hPa 0,0 l/m 1,6 km/h N 9,7 C 17,1 C 1,3 km/h
Min-Datum 22.05.15 12.05.15 01.05.15 12 Tage 01.05.15 - 22.05.15 28.05.15 01.05.15
Min-Zeit 05:50 15:10 20:00 - 00:20 - 05:50 04:30 00:20
Minimum 6,2 C 35 % 1003 hPa - 0,0 km/h - 2,3 C -0,0 C 0,0 km/h
Max-Datum 12.05.15 03.05.15 10.05.15 01.05.15 07.05.15 - 05.05.15 12.05.15 09.05.15
Max-Zeit 15:00 07:20 21:20 03:20 14:30 - 13:40 15:10 15:30
Maximum 30,6 C 86 % 1025 hPa 6,7 l/m 76,9 km/h
W-NW
- 16,6 C 30,6 C 74,1 km/h
W-NW
Durchschnitt 15,5 C 65 % 1014 hPa #37,3 l/m 4,7 km/h W-NW 8,7 C 14,8 C 4,3 km/h

Durchschnitt Minimum Temp.10,0 C
Durchschnitt Maximum Temp.20,6 C